• Join FlightAware (Why Join?)
  • Login
  • US Flag 
Gobble Gobble! 
09:51AM EST


 

Airport Tracker/Info


-or-


 

Live Flight TrackerFlight Track Log ✈ CDG4735 ✈ 30-Apr-2014 ✈ ZSFZ / FOC - ZJHK / HAK

Flight Track Log - Related Links

Times and Time Zones

All times are in EDT time to prevent confusion due to time zone crossing. See the CDG4735 flight status page for this flight to view local times or setup timezone preferences in your user account.

Time Position Orientation Groundspeed Altitude Reporting Facility
EDT Latitude Longitude Course Direction KTS MPH feet Rate Location/Type
02:58AM 25.4976 118.9319 237° Southwest  Level Estimated
02:59AM 25.4426 118.8409 236° Southwest  Level Estimated
03:00AM 25.3876 118.7499 236° Southwest  Level Estimated
03:01AM 25.3326 118.6591 236° Southwest  Level Estimated
03:02AM 25.2775 118.5683 236° Southwest  Level Estimated
03:03AM 25.2223 118.4776 236° Southwest  Level Estimated
03:04AM 25.1671 118.3869 236° Southwest  Level Estimated
03:05AM 25.1118 118.2964 236° Southwest  Level Estimated
03:06AM 25.0565 118.2059 236° Southwest  Level Estimated
03:07AM 25.0011 118.1155 236° Southwest  Level Estimated
03:08AM 24.9457 118.0253 236° Southwest  Level Estimated
03:09AM 24.8902 117.9350 236° Southwest  Level Estimated
03:10AM 24.8347 117.8449 236° Southwest  Level Estimated
03:11AM 24.7791 117.7548 236° Southwest  Level Estimated
03:12AM 24.7234 117.6649 236° Southwest  Level Estimated
03:13AM 24.6677 117.5750 236° Southwest  Level Estimated
03:14AM 24.6119 117.4852 236° Southwest  Level Estimated
03:15AM 24.5561 117.3954 236° Southwest  Level Estimated
03:16AM 24.5002 117.3058 236° Southwest  Level Estimated
03:17AM 24.4443 117.2162 236° Southwest  Level Estimated
03:18AM 24.3884 117.1267 236° Southwest  Level Estimated
03:19AM 24.3323 117.0373 235° Southwest  Level Estimated
03:20AM 24.2763 116.9479 235° Southwest  Level Estimated
03:21AM 24.2201 116.8587 235° Southwest  Level Estimated
03:22AM 24.1639 116.7695 235° Southwest  Level Estimated
03:23AM 24.1077 116.6804 235° Southwest  Level Estimated
03:24AM 24.0514 116.5914 235° Southwest  Level Estimated
03:25AM 23.9951 116.5024 235° Southwest  Level Estimated
03:26AM 23.9387 116.4136 235° Southwest  Level Estimated
03:27AM 23.8823 116.3248 235° Southwest  Level Estimated
03:28AM 23.8258 116.2361 235° Southwest  Level Estimated
03:29AM 23.7692 116.1474 235° Southwest  Level Estimated
03:30AM 23.7126 116.0589 235° Southwest  Level Estimated
03:31AM 23.6560 115.9704 235° Southwest  Level Estimated
03:32AM 23.5993 115.8820 235° Southwest  Level Estimated
03:33AM 23.5426 115.7936 235° Southwest  Level Estimated
03:34AM 23.4858 115.7054 235° Southwest  Level Estimated
03:35AM 23.4289 115.6172 235° Southwest  Level Estimated
03:36AM 23.3720 115.5291 235° Southwest  Level Estimated
03:37AM 23.3151 115.4411 235° Southwest  Level Estimated
03:38AM 23.2581 115.3531 235° Southwest  Level Estimated
03:39AM 23.2011 115.2653 235° Southwest  Level Estimated
03:40AM 23.1440 115.1775 235° Southwest  Level Estimated
03:41AM 23.0868 115.0898 235° Southwest  Level Estimated
03:42AM 23.0297 115.0021 235° Southwest  Level Estimated
03:43AM 22.9724 114.9145 235° Southwest  Level Estimated
03:44AM 22.9152 114.8270 235° Southwest  Level Estimated
03:45AM 22.8578 114.7396 235° Southwest  Level Estimated
03:46AM 22.8004 114.6523 235° Southwest  Level Estimated
03:47AM 22.7430 114.5650 235° Southwest  Level Estimated
03:48AM 22.6856 114.4778 234° Southwest  Level Estimated
03:49AM 22.6280 114.3906 234° Southwest  Level Estimated
03:50AM 22.5705 114.3036 234° Southwest  Level Estimated
03:51AM 22.5129 114.2166 234° Southwest  Level Estimated
03:52AM 22.4552 114.1297 234° Southwest  Level Estimated
03:53AM 22.3975 114.0428 234° Southwest  Level Estimated
03:54AM 22.3398 113.9560 234° Southwest  Level Estimated
03:55AM 22.2819 113.8693 234° Southwest  Level Estimated
03:56AM 22.2241 113.7827 234° Southwest  Level Estimated
03:57AM 22.1662 113.6962 234° Southwest  Level Estimated
03:58AM 22.1083 113.6097 234° Southwest  Level Estimated
03:59AM 22.0503 113.5233 234° Southwest  Level Estimated
04:00AM 21.9923 113.4369 234° Southwest  Level Estimated
04:01AM 21.9342 113.3507 234° Southwest  Level Estimated
04:02AM 21.8761 113.2645 234° Southwest  Level Estimated
04:03AM 21.8179 113.1783 234° Southwest  Level Estimated
04:04AM 21.7597 113.0923 234° Southwest  Level Estimated
04:05AM 21.7015 113.0063 234° Southwest  Level Estimated
04:06AM 21.6432 112.9203 234° Southwest  Level Estimated
04:07AM 21.5849 112.8345 234° Southwest  Level Estimated
04:08AM 21.5265 112.7487 234° Southwest  Level Estimated
04:09AM 21.4680 112.6630 234° Southwest  Level Estimated
04:10AM 21.4096 112.5773 234° Southwest  Level Estimated
04:11AM 21.3511 112.4918 234° Southwest  Level Estimated
04:12AM 21.2925 112.4063 234° Southwest  Level Estimated
04:13AM 21.2339 112.3208 234° Southwest  Level Estimated
04:14AM 21.1753 112.2355 234° Southwest  Level Estimated
04:15AM 21.1166 112.1501 234° Southwest  Level Estimated
04:16AM 21.0578 112.0649 234° Southwest  Level Estimated
04:17AM 20.9991 111.9797 234° Southwest  Level Estimated
04:18AM 20.9403 111.8946 234° Southwest  Level Estimated
04:19AM 20.8814 111.8096 233° Southwest  Level Estimated
04:20AM 20.8225 111.7246 233° Southwest  Level Estimated
04:21AM 20.7636 111.6397 233° Southwest  Level Estimated
04:22AM 20.7046 111.5549 233° Southwest  Level Estimated
04:23AM 20.6456 111.4701 233° Southwest  Level Estimated
04:24AM 20.5865 111.3854 233° Southwest  Level Estimated
04:25AM 20.5274 111.3008 233° Southwest  Level Estimated
04:26AM 20.4683 111.2162 233° Southwest  Level Estimated
04:27AM 20.4091 111.1317 233° Southwest  Level Estimated
04:28AM 20.3498 111.0472 233° Southwest  Level Estimated
04:29AM 20.2906 110.9629 233° Southwest  Level Estimated
04:30AM 20.2313 110.8786 233° Southwest  Level Estimated
04:31AM 20.1719 110.7943 233° Southwest  Level Estimated
04:32AM 20.1125 110.7101 233° Southwest  Level Estimated
04:33AM 20.0531 110.6260 233° Southwest  Level Estimated
04:34AM 19.9936 110.5419 233° Southwest  Level Estimated
04:35AM 19.9349 110.4590 233° Southwest  Level Estimated
04:36AM 19.9349 110.4590 North  Level Estimated
04:37AM 19.9349 110.4590 North  Level Estimated
04:38AM 19.9349 110.4590 North  Level Estimated
04:39AM 19.9349 110.4590 North  Level Estimated
04:40AM 19.9349 110.4590 North  Level Estimated
04:41AM 19.9349 110.4590 North  Level Estimated
04:42AM 19.9349 110.4590 North  Level Estimated
04:43AM 19.9349 110.4590 North  Level Estimated
04:44AM 19.9349 110.4590 North  Level Estimated
04:45AM 19.9349 110.4590 North  Level Estimated
04:46AM 19.9349 110.4590 North  Level Estimated
04:47AM 19.9349 110.4590 North  Level Estimated
04:48AM 19.9349 110.4590 North  Level Estimated
04:49AM 19.9349 110.4590 North  Level Estimated
04:50AM 19.9349 110.4590 North  Level Estimated
04:51AM 19.9349 110.4590 North  Level Estimated